createdAt,value
2023-05-16T00:01:36.917Z,10.43
2023-05-16T00:06:46.902Z,10.39
2023-05-16T00:18:15.909Z,10.25
2023-05-16T00:23:23.539Z,10.23
2023-05-16T00:28:31.122Z,10.26
2023-05-16T00:33:39.209Z,10.30
2023-05-16T00:38:46.875Z,10.39
2023-05-16T00:43:55.779Z,10.49
2023-05-16T00:49:03.694Z,10.49
2023-05-16T00:54:14.213Z,10.49
2023-05-16T00:59:23.748Z,10.52
2023-05-16T01:04:33.994Z,10.49
2023-05-16T01:09:42.463Z,10.46
2023-05-16T01:14:58.239Z,10.42
2023-05-16T01:20:15.808Z,10.37
2023-05-16T01:25:49.963Z,10.30
2023-05-16T01:30:57.988Z,10.19
2023-05-16T01:36:13.671Z,10.01
2023-05-16T01:41:26.669Z,9.89
2023-05-16T01:46:40.559Z,9.83
2023-05-16T01:51:53.618Z,9.72
2023-05-16T01:57:05.802Z,9.55
2023-05-16T02:02:13.501Z,9.39
2023-05-16T02:15:55.157Z,9.09
2023-05-16T02:21:02.938Z,9.07
2023-05-16T02:26:10.803Z,9.08
2023-05-16T02:31:28.792Z,8.98
2023-05-16T02:36:36.685Z,8.90
2023-05-16T02:41:44.158Z,8.87
2023-05-16T02:46:51.520Z,8.89
2023-05-16T02:51:59.277Z,8.92
2023-05-16T02:57:09.102Z,8.96
2023-05-16T03:02:16.542Z,9.04
2023-05-16T03:07:23.893Z,9.15
2023-05-16T03:12:31.555Z,9.27
2023-05-16T03:17:39.784Z,9.30
2023-05-16T03:22:47.208Z,9.17
2023-05-16T03:27:54.575Z,9.02
2023-05-16T03:33:01.943Z,8.82
2023-05-16T03:38:09.610Z,8.76
2023-05-16T03:43:17.174Z,8.90
2023-05-16T03:53:04.098Z,8.96
2023-05-16T03:58:12.658Z,8.92
2023-05-16T04:03:20.769Z,8.99
2023-05-16T04:08:28.965Z,9.15
2023-05-16T04:13:36.396Z,9.26
2023-05-16T04:18:44.975Z,9.34
2023-05-16T04:23:52.365Z,9.49
2023-05-16T04:38:53.001Z,9.97
2023-05-16T04:44:00.771Z,10.14
2023-05-16T04:49:08.425Z,10.30
2023-05-16T04:54:16.620Z,10.44
2023-05-16T04:59:24.128Z,10.60
2023-05-16T05:04:31.786Z,10.76
2023-05-16T05:09:39.190Z,10.95
2023-05-16T05:14:46.435Z,11.17
2023-05-16T05:19:53.969Z,11.39
2023-05-16T05:25:01.385Z,11.60
2023-05-16T05:30:10.529Z,11.83
2023-05-16T05:35:18.187Z,12.12
2023-05-16T05:40:25.595Z,12.39
2023-05-16T05:45:33.254Z,12.62
2023-05-16T05:50:40.859Z,12.84
2023-05-16T05:55:48.313Z,13.07
2023-05-16T06:00:56.915Z,13.31
2023-05-16T06:06:05.885Z,13.52
2023-05-16T06:11:15.047Z,13.67
2023-05-16T06:16:26.478Z,13.85
2023-05-16T06:21:34.611Z,13.99
2023-05-16T06:26:42.364Z,14.10
2023-05-16T06:31:50.800Z,14.18
2023-05-16T06:36:58.524Z,14.26
2023-05-16T06:42:06.595Z,14.39
2023-05-16T06:47:14.253Z,14.49
2023-05-16T06:52:22.053Z,14.60
2023-05-16T06:57:29.814Z,14.66
2023-05-16T07:02:38.244Z,14.73
2023-05-16T07:07:46.022Z,14.81
2023-05-16T07:12:53.285Z,14.84
2023-05-16T07:18:01.513Z,14.89
2023-05-16T07:23:09.628Z,14.94
2023-05-16T07:28:17.688Z,15.06
2023-05-16T07:36:16.938Z,15.33
2023-05-16T07:41:26.010Z,15.49
2023-05-16T07:46:34.671Z,15.65
2023-05-16T07:51:43.181Z,15.78
2023-05-16T07:56:50.606Z,15.95
2023-05-16T08:01:58.431Z,16.12
2023-05-16T08:07:06.345Z,16.31
2023-05-16T08:12:14.640Z,16.46
2023-05-16T08:17:22.152Z,16.54
2023-05-16T08:22:30.243Z,16.61
2023-05-16T08:27:38.208Z,16.67
2023-05-16T08:32:45.930Z,16.72
2023-05-16T08:37:53.528Z,16.87
2023-05-16T08:43:01.584Z,16.95
2023-05-16T08:48:11.479Z,17.14
2023-05-16T08:53:27.845Z,17.33
2023-05-16T08:58:35.780Z,17.53
2023-05-16T09:03:44.125Z,17.56
2023-05-16T09:08:52.030Z,17.71
2023-05-16T09:14:02.624Z,17.87
2023-05-16T09:19:14.664Z,17.99
2023-05-16T09:24:28.650Z,18.14
2023-05-16T09:29:38.551Z,18.25
2023-05-16T09:34:49.579Z,18.22
2023-05-16T09:39:57.362Z,18.27
2023-05-16T09:45:05.132Z,18.34
2023-05-16T09:50:17.072Z,18.39
2023-05-16T09:55:26.935Z,18.47
2023-05-16T10:00:36.171Z,18.50
2023-05-16T10:05:44.271Z,18.48
2023-05-16T10:10:54.629Z,18.54
2023-05-16T10:16:08.198Z,18.60
2023-05-16T10:21:19.528Z,18.70
2023-05-16T10:26:28.169Z,18.82
2023-05-16T10:31:36.842Z,18.91
2023-05-16T10:36:44.849Z,18.97
2023-05-16T10:41:52.942Z,18.97
2023-05-16T10:47:04.959Z,19.05
2023-05-16T10:52:15.978Z,19.13
2023-05-16T10:57:28.311Z,19.21
2023-05-16T11:02:42.916Z,19.27
2023-05-16T11:08:07.809Z,19.28
2023-05-16T11:13:20.287Z,19.30
2023-05-16T11:18:27.780Z,19.29
2023-05-16T11:23:35.355Z,19.26
2023-05-16T11:28:42.869Z,19.20
2023-05-16T11:33:50.488Z,19.11
2023-05-16T11:39:07.187Z,19.09
2023-05-16T11:44:16.440Z,19.08
2023-05-16T11:49:24.284Z,19.04
2023-05-16T12:05:29.022Z,18.99
2023-05-16T12:10:37.042Z,18.91
2023-05-16T12:15:44.817Z,18.83
2023-05-16T12:20:52.749Z,18.73
2023-05-16T12:26:01.950Z,18.66
2023-05-16T12:36:36.042Z,18.54
2023-05-16T12:41:45.105Z,18.49
2023-05-16T12:46:55.522Z,18.46
2023-05-16T12:52:06.237Z,18.44
2023-05-16T12:57:13.740Z,18.40
2023-05-16T13:02:23.076Z,18.35
2023-05-16T13:07:31.216Z,18.33
2023-05-16T13:12:39.697Z,18.28
2023-05-16T13:17:48.693Z,18.22
2023-05-16T13:22:56.907Z,18.18
2023-05-16T13:28:05.156Z,18.11
2023-05-16T13:33:13.572Z,17.99
2023-05-16T13:38:21.456Z,17.89
2023-05-16T13:43:29.072Z,17.81
2023-05-16T13:48:36.638Z,17.72
2023-05-16T13:53:44.515Z,17.66
2023-05-16T13:59:02.062Z,17.58
2023-05-16T14:04:11.880Z,17.50
2023-05-16T14:09:19.527Z,17.46
2023-05-16T14:14:27.106Z,17.47
2023-05-16T14:19:35.418Z,17.49
2023-05-16T14:24:43.070Z,17.48
2023-05-16T14:29:53.089Z,17.48
2023-05-16T14:35:00.645Z,17.47
2023-05-16T14:40:11.088Z,17.47
2023-05-16T14:45:19.053Z,17.40
2023-05-16T14:50:27.525Z,17.32
2023-05-16T14:55:35.586Z,17.25
2023-05-16T15:00:44.222Z,17.19
2023-05-16T15:05:53.168Z,17.13
2023-05-16T15:11:00.890Z,17.05
2023-05-16T15:16:10.355Z,17.00
2023-05-16T15:21:18.212Z,16.95
2023-05-16T15:26:25.926Z,16.91
2023-05-16T15:31:33.951Z,16.88
2023-05-16T15:36:41.383Z,16.82
2023-05-16T15:42:09.297Z,16.77
2023-05-16T15:47:19.846Z,16.70
2023-05-16T15:52:27.444Z,16.62
2023-05-16T15:57:36.923Z,16.57
2023-05-16T16:02:45.753Z,16.54
2023-05-16T16:07:53.234Z,16.49
2023-05-16T16:13:03.731Z,16.40
2023-05-16T16:18:11.955Z,16.31
2023-05-16T16:23:19.293Z,16.21
2023-05-16T16:28:29.312Z,16.15
2023-05-16T16:33:37.148Z,16.10
2023-05-16T16:38:45.051Z,16.02
2023-05-16T16:43:53.290Z,15.92
2023-05-16T16:53:29.520Z,15.78
2023-05-16T16:58:37.357Z,15.71
2023-05-16T17:03:46.799Z,15.67
2023-05-16T17:08:54.409Z,15.62
2023-05-16T17:14:06.171Z,15.50
2023-05-16T17:19:14.300Z,15.41
2023-05-16T17:24:22.465Z,15.32
2023-05-16T17:29:31.042Z,15.25
2023-05-16T17:34:38.476Z,15.19
2023-05-16T17:39:46.880Z,15.15
2023-05-16T17:44:55.549Z,15.07
2023-05-16T17:50:03.225Z,14.97
2023-05-16T17:55:12.292Z,14.92
2023-05-16T18:00:22.820Z,14.85
2023-05-16T18:05:30.232Z,14.80
2023-05-16T18:10:51.039Z,14.72
2023-05-16T18:16:00.206Z,14.64
2023-05-16T18:21:08.081Z,14.58
2023-05-16T18:26:15.879Z,14.44
2023-05-16T18:31:24.502Z,14.37
2023-05-16T18:36:32.337Z,14.30
2023-05-16T18:41:40.650Z,14.18
2023-05-16T18:52:41.183Z,14.04
2023-05-16T18:57:48.800Z,13.93
2023-05-16T19:02:56.547Z,13.88
2023-05-16T19:08:05.873Z,13.84
2023-05-16T19:13:13.691Z,13.76
2023-05-16T19:18:21.592Z,13.65
2023-05-16T19:23:29.456Z,13.58
2023-05-16T19:28:38.136Z,13.49
2023-05-16T19:33:46.828Z,13.36
2023-05-16T19:38:54.902Z,13.28
2023-05-16T19:44:02.618Z,13.30
2023-05-16T19:49:11.123Z,13.24
2023-05-16T19:54:19.632Z,13.15
2023-05-16T19:59:26.784Z,13.13
2023-05-16T20:04:34.339Z,13.13
2023-05-16T20:09:43.149Z,13.12
2023-05-16T20:14:50.627Z,13.18
2023-05-16T20:19:58.391Z,13.21
2023-05-16T20:25:06.195Z,13.12
2023-05-16T20:30:15.119Z,13.02
2023-05-16T20:35:22.953Z,12.95
2023-05-16T20:40:30.137Z,12.92
2023-05-16T20:45:37.500Z,12.87
2023-05-16T20:54:49.677Z,12.85
2023-05-16T20:59:58.839Z,12.82
2023-05-16T21:05:23.036Z,12.79
2023-05-16T21:10:32.265Z,12.71
2023-05-16T21:15:40.037Z,12.73
2023-05-16T21:20:48.338Z,12.78
2023-05-16T21:25:56.326Z,12.76
2023-05-16T21:31:03.862Z,12.78
2023-05-16T21:36:12.011Z,12.81
2023-05-16T21:41:19.468Z,12.81
2023-05-16T21:46:28.037Z,12.79
2023-05-16T21:51:35.609Z,12.75
2023-05-16T21:56:43.268Z,12.77
2023-05-16T22:01:50.725Z,12.78
2023-05-16T22:06:58.586Z,12.77
2023-05-16T22:12:08.307Z,12.76
2023-05-16T22:17:16.580Z,12.80
2023-05-16T22:22:26.493Z,12.77
2023-05-16T22:27:34.923Z,12.72
2023-05-16T22:32:42.519Z,12.71
2023-05-16T22:37:50.641Z,12.69
2023-05-16T22:42:58.054Z,12.68
2023-05-16T22:48:06.506Z,12.68
2023-05-16T22:53:14.118Z,12.64
2023-05-16T22:58:22.300Z,12.64
2023-05-16T23:03:31.915Z,12.62
2023-05-16T23:08:39.787Z,12.58
2023-05-16T23:13:47.416Z,12.58
2023-05-16T23:18:56.733Z,12.58
2023-05-16T23:24:04.690Z,12.55
2023-05-16T23:29:12.257Z,12.57
2023-05-16T23:34:21.819Z,12.59
2023-05-16T23:39:29.481Z,12.57
2023-05-16T23:44:37.332Z,12.52
2023-05-16T23:49:44.588Z,12.49
2023-05-16T23:54:52.448Z,12.44
